Time;durP1;ratioP1;P1;durP2;ratioP2;P2;SDS_P1;SDS_P2;PMS_P1;PMS_P2;Temp;Humidity;BMP_temperature;BMP_pressure;BME280_temperature;BME280_humidity;BME280_pressure;Samples;Min_cycle;Max_cycle;Signal;HPM_P1;HPM_P2
2022/04/15 00:00:38;;;;;;;;;;;8.20;99.90;;;;;;5113821;28;20282;-63
2022/04/15 00:03:05;;;;;;;;;;;8.50;99.90;;;;;;5107697;28;19924;-63
2022/04/15 00:05:36;;;;;;;;;;;8.20;99.90;;;;;;5113179;28;19946;-63
2022/04/15 00:08:03;;;;;;;;;;;8.30;99.90;;;;;;5113399;28;20396;-63
2022/04/15 00:10:29;;;;;;;;;;;8.40;99.90;;;;;;5094132;28;20293;-63
2022/04/15 00:12:55;;;;;;;;;;;8.40;99.90;;;;;;5104591;28;19928;-63
2022/04/15 00:15:21;;;;;;;;;;;8.40;99.90;;;;;;5075278;28;19971;-63
2022/04/15 00:17:47;;;;;;;;;;;8.40;99.90;;;;;;5091904;28;20325;-63
2022/04/15 00:20:13;;;;;;;;;;;8.40;99.90;;;;;;5093050;28;19924;-63
2022/04/15 00:22:39;;;;;;;;;;;8.50;99.90;;;;;;5087179;28;19981;-63
2022/04/15 00:25:05;;;;;;;;;;;8.50;99.90;;;;;;5112950;28;20011;-63
2022/04/15 00:27:31;;;;;;;;;;;8.50;99.90;;;;;;5113483;28;19930;-63
2022/04/15 00:29:56;;;;;;;;;;;8.50;99.90;;;;;;5110859;28;19947;-63
2022/04/15 00:32:22;;;;;;;;;;;8.50;99.90;;;;;;5091564;28;19924;-63
2022/04/15 00:34:47;;;;;;;;;;;8.50;99.90;;;;;;5091973;28;19932;-63
2022/04/15 00:37:14;;;;;;;;;;;8.50;99.90;;;;;;5090931;28;19924;-63
2022/04/15 00:39:45;;;;;;;;;;;8.40;99.90;;;;;;5094362;28;19927;-63
2022/04/15 00:42:10;;;;;;;;;;;8.50;99.90;;;;;;5092937;28;19924;-63
2022/04/15 00:44:37;;;;;;;;;;;8.50;99.90;;;;;;5090749;28;19977;-63
2022/04/15 00:47:07;;;;;;;;;;;8.50;99.90;;;;;;5079493;28;19924;-63
2022/04/15 00:49:34;;;;;;;;;;;8.50;99.90;;;;;;5110930;28;19931;-63
2022/04/15 00:52:02;;;;;;;;;;;8.50;99.90;;;;;;5112729;28;20068;-63
2022/04/15 00:54:29;;;;;;;;;;;8.50;99.90;;;;;;5095051;28;19977;-63
2022/04/15 00:56:57;;;;;;;;;;;8.50;99.90;;;;;;5109854;28;19935;-64
2022/04/15 00:59:23;;;;;;;;;;;8.50;99.90;;;;;;5095887;28;20439;-63
2022/04/15 01:01:49;;;;;;;;;;;8.50;99.90;;;;;;5096009;28;20362;-63
2022/04/15 01:04:15;;;;;;;;;;;8.60;99.90;;;;;;5111039;28;19967;-63
2022/04/15 01:06:41;;;;;;;;;;;8.60;99.90;;;;;;5096251;28;20282;-63
2022/04/15 01:09:08;;;;;;;;;;;8.60;99.90;;;;;;5094189;28;19924;-63
2022/04/15 01:11:34;;;;;;;;;;;8.60;99.90;;;;;;5094875;28;19966;-63
2022/04/15 01:14:00;;;;;;;;;;;8.60;99.90;;;;;;5092868;28;19977;-63
2022/04/15 01:16:28;;;;;;;;;;;8.60;99.90;;;;;;5094651;28;19986;-63
2022/04/15 01:18:54;;;;;;;;;;;8.50;99.90;;;;;;5077565;28;19920;-63
2022/04/15 01:21:23;;;;;;;;;;;8.50;99.90;;;;;;5095604;28;19924;-63
2022/04/15 01:23:50;;;;;;;;;;;8.50;99.90;;;;;;5094550;28;19927;-63
2022/04/15 01:26:17;;;;;;;;;;;8.50;99.90;;;;;;5094994;28;19998;-63
2022/04/15 01:28:43;;;;;;;;;;;8.50;99.90;;;;;;5096174;28;19924;-62
2022/04/15 01:31:08;;;;;;;;;;;8.50;99.90;;;;;;5095402;28;20447;-63
2022/04/15 01:33:34;;;;;;;;;;;8.50;99.90;;;;;;5111684;28;19924;-63
2022/04/15 01:36:00;;;;;;;;;;;8.50;99.90;;;;;;5116250;28;19959;-63
2022/04/15 01:38:25;;;;;;;;;;;8.40;99.90;;;;;;5097289;28;19934;-63
2022/04/15 01:40:52;;;;;;;;;;;8.50;99.90;;;;;;5092461;28;19924;-63
2022/04/15 01:43:17;;;;;;;;;;;8.50;99.90;;;;;;5095596;28;19924;-63
2022/04/15 01:45:43;;;;;;;;;;;8.50;99.90;;;;;;5072887;28;19931;-63
2022/04/15 01:48:09;;;;;;;;;;;8.50;99.90;;;;;;5070464;28;19947;-63
2022/04/15 01:50:35;;;;;;;;;;;8.50;99.90;;;;;;5087963;28;19923;-63
2022/04/15 01:53:00;;;;;;;;;;;8.50;99.90;;;;;;5115678;28;19947;-63
2022/04/15 01:55:26;;;;;;;;;;;8.50;99.90;;;;;;5096703;28;20390;-63
2022/04/15 01:57:52;;;;;;;;;;;8.50;99.90;;;;;;5115490;28;19923;-63
2022/04/15 02:00:18;;;;;;;;;;;8.50;99.90;;;;;;5096766;28;20019;-63
2022/04/15 02:02:43;;;;;;;;;;;8.50;99.90;;;;;;5113022;28;20381;-63
2022/04/15 02:05:09;;;;;;;;;;;8.60;99.90;;;;;;5095188;28;20042;-63
2022/04/15 02:07:35;;;;;;;;;;;8.50;99.90;;;;;;5093300;28;19931;-63
2022/04/15 02:10:01;;;;;;;;;;;8.40;99.90;;;;;;5076259;28;20429;-63
2022/04/15 02:12:26;;;;;;;;;;;8.30;99.90;;;;;;5093767;28;20119;-63
2022/04/15 02:14:52;;;;;;;;;;;8.30;99.90;;;;;;5094504;28;19924;-63
2022/04/15 02:17:18;;;;;;;;;;;8.20;99.90;;;;;;5095862;28;19924;-63
2022/04/15 02:19:43;;;;;;;;;;;8.20;99.90;;;;;;5095011;28;20527;-63
2022/04/15 02:22:09;;;;;;;;;;;8.20;99.90;;;;;;5094707;28;20015;-63
2022/04/15 02:24:34;;;;;;;;;;;8.20;99.90;;;;;;5111017;28;20028;-63
2022/04/15 02:27:00;;;;;;;;;;;8.20;99.90;;;;;;5114443;28;20358;-63
2022/04/15 02:29:26;;;;;;;;;;;8.10;99.90;;;;;;5113978;28;19928;-63
2022/04/15 02:31:52;;;;;;;;;;;8.10;99.90;;;;;;5114948;28;19924;-63
2022/04/15 02:34:17;;;;;;;;;;;8.00;99.90;;;;;;5113895;28;20357;-63
2022/04/15 02:36:43;;;;;;;;;;;8.10;99.90;;;;;;5095448;28;19927;-63
2022/04/15 02:39:10;;;;;;;;;;;8.00;99.90;;;;;;5114915;28;19923;-63
2022/04/15 02:41:38;;;;;;;;;;;8.00;99.90;;;;;;5079611;28;19931;-63
2022/04/15 02:44:05;;;;;;;;;;;8.00;99.90;;;;;;5113634;28;19930;-63
2022/04/15 02:46:31;;;;;;;;;;;8.00;99.90;;;;;;5103752;28;19930;-63
2022/04/15 02:48:57;;;;;;;;;;;8.00;99.90;;;;;;5094521;28;20010;-63
2022/04/15 02:51:22;;;;;;;;;;;7.90;99.90;;;;;;5076341;28;19963;-63
2022/04/15 02:53:48;;;;;;;;;;;7.90;99.90;;;;;;5095947;28;19931;-63
2022/04/15 02:56:13;;;;;;;;;;;7.80;99.90;;;;;;5096668;28;19924;-61
2022/04/15 02:58:39;;;;;;;;;;;7.80;99.90;;;;;;5113656;28;19927;-61
2022/04/15 03:01:05;;;;;;;;;;;7.80;99.90;;;;;;5113352;28;19930;-61
2022/04/15 03:03:30;;;;;;;;;;;7.80;99.90;;;;;;5106015;28;19924;-61
2022/04/15 03:05:56;;;;;;;;;;;7.80;99.90;;;;;;5093481;28;19963;-61
2022/04/15 03:08:22;;;;;;;;;;;7.90;99.90;;;;;;5093801;28;19924;-61
2022/04/15 03:10:47;;;;;;;;;;;7.80;99.90;;;;;;5109223;28;19924;-61
2022/04/15 03:13:13;;;;;;;;;;;7.80;99.90;;;;;;5095204;28;20298;-61
2022/04/15 03:15:38;;;;;;;;;;;7.90;99.90;;;;;;5095499;28;20011;-61
2022/04/15 03:18:04;;;;;;;;;;;7.80;99.90;;;;;;5099135;28;20019;-61
2022/04/15 03:20:30;;;;;;;;;;;7.80;99.90;;;;;;5087634;28;19999;-61
2022/04/15 03:22:55;;;;;;;;;;;7.80;99.90;;;;;;5096169;28;20421;-61
2022/04/15 03:25:21;;;;;;;;;;;7.70;99.90;;;;;;5095746;28;20293;-61
2022/04/15 03:27:47;;;;;;;;;;;7.80;99.90;;;;;;5102196;28;19928;-61
2022/04/15 03:30:13;;;;;;;;;;;7.80;99.90;;;;;;5075175;28;19924;-61
2022/04/15 03:32:44;;;;;;;;;;;7.80;99.90;;;;;;5092991;28;19924;-61
2022/04/15 03:35:10;;;;;;;;;;;7.80;99.90;;;;;;5093285;28;19942;-61
2022/04/15 03:37:35;;;;;;;;;;;7.80;99.90;;;;;;5092372;28;19928;-61
2022/04/15 03:40:01;;;;;;;;;;;7.80;99.90;;;;;;5093038;28;20003;-61
2022/04/15 03:42:27;;;;;;;;;;;7.70;99.90;;;;;;5093746;28;19960;-61
2022/04/15 03:44:52;;;;;;;;;;;7.70;99.90;;;;;;5097485;28;19928;-61
2022/04/15 03:47:18;;;;;;;;;;;7.70;99.90;;;;;;5095596;28;19924;-61
2022/04/15 03:49:45;;;;;;;;;;;7.70;99.90;;;;;;5093613;28;19931;-61
2022/04/15 03:52:11;;;;;;;;;;;7.70;99.90;;;;;;5093296;28;19934;-61
2022/04/15 03:54:37;;;;;;;;;;;7.70;99.90;;;;;;5086079;28;19927;-61
2022/04/15 03:57:02;;;;;;;;;;;7.70;99.90;;;;;;5095577;28;19924;-61
2022/04/15 03:59:28;;;;;;;;;;;7.60;99.90;;;;;;5094902;28;19924;-61
2022/04/15 04:01:54;;;;;;;;;;;7.60;99.90;;;;;;5094613;28;19980;-61
2022/04/15 04:04:19;;;;;;;;;;;7.60;99.90;;;;;;5078934;28;19924;-61
2022/04/15 04:06:45;;;;;;;;;;;7.60;99.90;;;;;;5093172;28;19935;-61
2022/04/15 04:09:10;;;;;;;;;;;7.50;99.90;;;;;;5092240;28;19924;-61
2022/04/15 04:11:36;;;;;;;;;;;7.50;99.90;;;;;;5081342;28;20324;-61
2022/04/15 04:14:02;;;;;;;;;;;7.50;99.90;;;;;;5112831;28;19924;-61
2022/04/15 04:16:27;;;;;;;;;;;7.50;99.90;;;;;;5109221;28;19931;-61
2022/04/15 04:18:53;;;;;;;;;;;7.40;99.90;;;;;;5093247;28;20278;-61
2022/04/15 04:21:20;;;;;;;;;;;7.40;99.90;;;;;;5092067;28;20389;-61
2022/04/15 04:23:46;;;;;;;;;;;7.50;99.90;;;;;;5102212;28;19927;-61
2022/04/15 04:26:11;;;;;;;;;;;7.40;99.90;;;;;;5113304;28;19931;-61
2022/04/15 04:28:37;;;;;;;;;;;7.40;99.90;;;;;;5093099;28;20409;-61
2022/04/15 04:31:02;;;;;;;;;;;7.40;99.90;;;;;;5095722;28;19924;-61
2022/04/15 04:33:28;;;;;;;;;;;7.40;99.90;;;;;;5097042;28;19928;-61
2022/04/15 04:35:53;;;;;;;;;;;7.30;99.90;;;;;;5077858;28;19931;-61
2022/04/15 04:38:19;;;;;;;;;;;7.40;99.90;;;;;;5104166;28;19924;-61
2022/04/15 04:40:45;;;;;;;;;;;7.40;99.90;;;;;;5117279;28;19924;-61
2022/04/15 04:43:11;;;;;;;;;;;7.40;99.90;;;;;;5116078;28;19928;-61
2022/04/15 04:45:37;;;;;;;;;;;7.40;99.90;;;;;;5095534;28;19924;-61
2022/04/15 04:48:04;;;;;;;;;;;7.40;99.90;;;;;;5098397;28;20068;-61
2022/04/15 04:50:30;;;;;;;;;;;7.40;99.90;;;;;;5095856;28;19924;-60
2022/04/15 04:52:56;;;;;;;;;;;7.60;99.90;;;;;;5096677;28;19928;-60
2022/04/15 04:55:21;;;;;;;;;;;7.30;99.90;;;;;;5098525;28;20297;-61
2022/04/15 04:57:50;;;;;;;;;;;7.30;99.90;;;;;;5097383;28;20369;-61
2022/04/15 05:00:17;;;;;;;;;;;7.30;99.90;;;;;;5116682;28;19986;-61
2022/04/15 05:02:43;;;;;;;;;;;7.30;99.90;;;;;;5096919;28;20289;-61
2022/04/15 05:05:09;;;;;;;;;;;7.30;99.90;;;;;;5094860;28;19924;-60
2022/04/15 05:07:35;;;;;;;;;;;7.30;99.90;;;;;;5096505;28;19924;-61
2022/04/15 05:10:01;;;;;;;;;;;7.40;99.90;;;;;;5078077;28;19925;-61
2022/04/15 05:12:27;;;;;;;;;;;7.30;99.90;;;;;;5095345;28;19928;-61
2022/04/15 05:14:52;;;;;;;;;;;7.40;99.90;;;;;;5113209;28;20343;-60
2022/04/15 05:17:18;;;;;;;;;;;7.50;99.90;;;;;;5105896;28;19950;-61
2022/04/15 05:19:44;;;;;;;;;;;7.50;99.90;;;;;;5077013;28;19920;-61
2022/04/15 05:22:10;;;;;;;;;;;7.50;99.90;;;;;;5099960;28;19931;-61
2022/04/15 05:24:37;;;;;;;;;;;7.50;99.90;;;;;;5113547;28;19988;-61
2022/04/15 05:27:02;;;;;;;;;;;7.50;99.90;;;;;;5115388;28;19931;-61
2022/04/15 05:29:28;;;;;;;;;;;7.60;99.90;;;;;;5116275;28;19923;-61
2022/04/15 05:31:54;;;;;;;;;;;7.60;99.90;;;;;;5097172;28;19968;-61
2022/04/15 05:34:19;;;;;;;;;;;7.60;99.90;;;;;;5115277;28;19924;-61
2022/04/15 05:36:45;;;;;;;;;;;7.60;99.90;;;;;;5116266;28;19928;-61
2022/04/15 05:39:11;;;;;;;;;;;7.60;99.90;;;;;;5115239;28;19998;-61
2022/04/15 05:41:36;;;;;;;;;;;7.60;99.90;;;;;;5115461;28;20331;-63
2022/04/15 05:44:03;;;;;;;;;;;7.60;99.90;;;;;;5115847;28;20290;-63
2022/04/15 05:46:29;;;;;;;;;;;7.60;99.90;;;;;;5086447;28;20390;-63
2022/04/15 05:48:55;;;;;;;;;;;7.60;99.90;;;;;;5101066;28;20010;-63
2022/04/15 05:51:21;;;;;;;;;;;7.60;99.90;;;;;;5115371;28;20036;-63
2022/04/15 05:53:47;;;;;;;;;;;7.70;99.90;;;;;;5087154;28;19925;-63
2022/04/15 05:56:13;;;;;;;;;;;7.80;99.90;;;;;;5092069;28;19928;-63
2022/04/15 05:58:40;;;;;;;;;;;7.60;99.90;;;;;;5102734;28;19946;-63
2022/04/15 06:01:09;;;;;;;;;;;7.60;99.90;;;;;;5094088;28;20276;-63
2022/04/15 06:03:35;;;;;;;;;;;7.60;99.90;;;;;;5095137;28;20436;-63
2022/04/15 06:06:01;;;;;;;;;;;7.60;99.90;;;;;;5094122;28;19935;-63
2022/04/15 06:08:26;;;;;;;;;;;7.60;99.90;;;;;;5080084;28;19927;-63
2022/04/15 06:10:52;;;;;;;;;;;7.60;99.90;;;;;;5109539;28;19924;-63
2022/04/15 06:13:25;;;;;;;;;;;7.70;99.90;;;;;;5094596;28;19931;-63
2022/04/15 06:15:55;;;;;;;;;;;7.70;99.90;;;;;;5074814;28;20002;-63
2022/04/15 06:18:23;;;;;;;;;;;7.70;99.90;;;;;;5077528;28;19933;-63
2022/04/15 06:20:49;;;;;;;;;;;7.70;99.90;;;;;;5075532;28;19975;-63
2022/04/15 06:23:15;;;;;;;;;;;7.70;99.90;;;;;;5075785;28;19959;-63
2022/04/15 06:25:41;;;;;;;;;;;7.70;99.90;;;;;;5112334;28;20436;-63
2022/04/15 06:28:07;;;;;;;;;;;7.70;99.90;;;;;;5114835;28;19951;-63
2022/04/15 06:30:33;;;;;;;;;;;7.70;99.90;;;;;;5114585;28;19929;-63
2022/04/15 06:32:59;;;;;;;;;;;7.80;99.90;;;;;;5096090;28;19969;-63
2022/04/15 06:35:25;;;;;;;;;;;7.80;99.90;;;;;;5114454;28;19924;-63
2022/04/15 06:37:51;;;;;;;;;;;7.80;99.90;;;;;;5114681;28;19928;-63
2022/04/15 06:40:16;;;;;;;;;;;7.80;99.90;;;;;;5115022;28;19931;-63
2022/04/15 06:42:42;;;;;;;;;;;7.80;99.90;;;;;;5077904;28;19924;-63
2022/04/15 06:45:09;;;;;;;;;;;7.70;99.90;;;;;;5096574;28;19977;-63
2022/04/15 06:47:35;;;;;;;;;;;7.70;99.90;;;;;;5059954;28;19987;-63
2022/04/15 06:50:00;;;;;;;;;;;7.70;99.90;;;;;;5093297;28;19963;-63
2022/04/15 06:52:26;;;;;;;;;;;7.70;99.90;;;;;;5112622;28;20488;-63
2022/04/15 06:54:52;;;;;;;;;;;7.70;99.90;;;;;;5096266;28;20389;-63
2022/04/15 06:57:17;;;;;;;;;;;7.70;99.90;;;;;;5113279;28;19991;-63
2022/04/15 06:59:43;;;;;;;;;;;7.70;99.90;;;;;;5114129;28;19920;-63
2022/04/15 07:02:08;;;;;;;;;;;7.80;99.90;;;;;;5114470;28;19938;-63
2022/04/15 07:04:34;;;;;;;;;;;7.80;99.90;;;;;;5095831;28;19931;-63
2022/04/15 07:07:00;;;;;;;;;;;7.80;99.90;;;;;;5076053;28;19920;-63
2022/04/15 07:09:26;;;;;;;;;;;7.90;99.90;;;;;;5088520;28;19928;-62
2022/04/15 07:11:53;;;;;;;;;;;7.90;99.90;;;;;;5113475;28;19931;-64
2022/04/15 07:14:19;;;;;;;;;;;7.90;99.90;;;;;;5114019;28;20440;-63
2022/04/15 07:16:45;;;;;;;;;;;8.00;99.90;;;;;;5108820;28;20038;-63
2022/04/15 07:19:10;;;;;;;;;;;8.00;99.90;;;;;;5094940;28;20268;-63
2022/04/15 07:21:38;;;;;;;;;;;8.10;99.90;;;;;;5096896;28;19943;-63
2022/04/15 07:24:04;;;;;;;;;;;8.10;99.90;;;;;;5106179;28;19920;-63
2022/04/15 07:26:30;;;;;;;;;;;8.20;99.90;;;;;;5112272;28;19924;-63
2022/04/15 07:28:56;;;;;;;;;;;8.20;99.90;;;;;;5095873;28;19974;-63
2022/04/15 07:31:22;;;;;;;;;;;8.20;99.90;;;;;;5114249;28;20285;-63
2022/04/15 07:33:48;;;;;;;;;;;8.30;99.90;;;;;;5112569;28;20419;-63
2022/04/15 07:38:58;;;;;;;;;;;8.50;99.90;;;;;;5113091;28;19979;-63
2022/04/15 07:41:24;;;;;;;;;;;8.60;99.90;;;;;;5113589;28;19975;-63
2022/04/15 07:43:49;;;;;;;;;;;8.70;99.90;;;;;;5094874;28;20044;-63
2022/04/15 07:46:16;;;;;;;;;;;8.80;99.90;;;;;;5104472;28;19954;-63
2022/04/15 07:48:42;;;;;;;;;;;8.90;99.90;;;;;;5093138;28;19928;-63
2022/04/15 07:51:08;;;;;;;;;;;9.00;99.90;;;;;;5093538;28;19967;-63
2022/04/15 07:53:33;;;;;;;;;;;9.00;99.90;;;;;;5105084;28;19966;-63
2022/04/15 07:55:59;;;;;;;;;;;9.10;99.90;;;;;;5095092;28;19923;-63
2022/04/15 07:58:25;;;;;;;;;;;9.20;99.90;;;;;;5113817;28;19947;-63
2022/04/15 08:00:50;;;;;;;;;;;9.30;99.90;;;;;;5094560;28;19924;-63
2022/04/15 08:03:20;;;;;;;;;;;9.40;99.90;;;;;;5106255;28;19936;-64
2022/04/15 08:05:46;;;;;;;;;;;9.50;99.90;;;;;;5096364;28;20341;-63
2022/04/15 08:08:11;;;;;;;;;;;9.70;99.90;;;;;;5096770;28;19924;-64
2022/04/15 08:10:37;;;;;;;;;;;9.70;99.90;;;;;;5096287;28;19924;-63
2022/04/15 08:13:03;;;;;;;;;;;9.80;99.90;;;;;;5079379;28;19924;-63
2022/04/15 08:15:28;;;;;;;;;;;9.90;99.90;;;;;;5096391;28;19950;-64
2022/04/15 08:17:54;;;;;;;;;;;10.00;99.90;;;;;;5096878;28;19924;-63
2022/04/15 08:20:20;;;;;;;;;;;10.00;99.90;;;;;;5104811;28;19967;-64
2022/04/15 08:22:45;;;;;;;;;;;10.10;99.90;;;;;;5097734;28;19928;-64
2022/04/15 08:25:11;;;;;;;;;;;10.30;99.90;;;;;;5117389;28;19924;-63
2022/04/15 08:27:37;;;;;;;;;;;10.40;99.90;;;;;;5115539;28;19923;-64
2022/04/15 08:30:03;;;;;;;;;;;10.60;99.90;;;;;;5096206;28;20019;-64
2022/04/15 08:32:33;;;;;;;;;;;10.70;99.90;;;;;;5096885;28;19931;-63
2022/04/15 08:35:00;;;;;;;;;;;10.60;99.90;;;;;;5096768;28;19924;-64
2022/04/15 08:37:25;;;;;;;;;;;10.60;99.90;;;;;;5105768;28;19934;-63
2022/04/15 08:39:52;;;;;;;;;;;10.50;99.90;;;;;;5098878;28;19920;-64
2022/04/15 08:42:19;;;;;;;;;;;10.60;99.90;;;;;;5116748;28;20026;-64
2022/04/15 08:44:47;;;;;;;;;;;10.70;99.90;;;;;;5116871;28;19981;-64
2022/04/15 08:47:12;;;;;;;;;;;10.80;99.90;;;;;;5099139;28;19925;-64
2022/04/15 08:49:38;;;;;;;;;;;11.30;99.90;;;;;;5077697;28;20327;-64
2022/04/15 08:52:04;;;;;;;;;;;11.40;99.90;;;;;;5096735;28;20010;-63
2022/04/15 08:54:31;;;;;;;;;;;11.60;99.90;;;;;;5081751;28;20399;-64
2022/04/15 08:56:57;;;;;;;;;;;11.90;99.90;;;;;;5116074;28;20041;-64
2022/04/15 08:59:22;;;;;;;;;;;12.10;99.90;;;;;;5116560;28;19924;-64
2022/04/15 09:01:49;;;;;;;;;;;12.20;99.90;;;;;;5098271;28;19927;-64
2022/04/15 09:04:17;;;;;;;;;;;12.10;99.90;;;;;;5100515;28;20333;-64
2022/04/15 09:06:43;;;;;;;;;;;11.90;99.90;;;;;;5096459;28;19931;-64
2022/04/15 09:09:11;;;;;;;;;;;11.70;99.90;;;;;;5096069;28;19924;-64
2022/04/15 09:11:38;;;;;;;;;;;11.70;99.90;;;;;;5095406;28;20451;-64
2022/04/15 09:14:10;;;;;;;;;;;11.60;99.90;;;;;;5115363;28;19963;-64
2022/04/15 09:16:37;;;;;;;;;;;11.50;99.90;;;;;;5111303;28;19939;-64
2022/04/15 09:19:04;;;;;;;;;;;11.30;99.90;;;;;;5095450;28;19924;-64
2022/04/15 09:21:30;;;;;;;;;;;11.20;99.90;;;;;;5103321;28;19938;-64
2022/04/15 09:23:56;;;;;;;;;;;11.20;99.90;;;;;;5113310;28;19928;-64
2022/04/15 09:26:22;;;;;;;;;;;10.90;99.90;;;;;;5115580;28;19967;-64
2022/04/15 09:28:48;;;;;;;;;;;10.70;99.90;;;;;;5116473;28;19923;-64
2022/04/15 09:31:15;;;;;;;;;;;10.60;99.90;;;;;;5115111;28;19931;-64
2022/04/15 09:33:51;;;;;;;;;;;10.60;99.90;;;;;;5097568;28;19924;-64
2022/04/15 09:36:30;;;;;;;;;;;10.40;99.90;;;;;;5097795;28;20474;-64
2022/04/15 09:38:57;;;;;;;;;;;10.40;99.90;;;;;;5114067;28;19923;-64
2022/04/15 09:41:23;;;;;;;;;;;10.40;99.90;;;;;;5116145;28;19924;-64
2022/04/15 09:43:50;;;;;;;;;;;10.40;99.90;;;;;;5116206;28;19924;-64
2022/04/15 09:46:16;;;;;;;;;;;10.40;99.90;;;;;;5106438;28;20433;-64
2022/04/15 09:48:56;;;;;;;;;;;10.40;99.90;;;;;;5108403;28;19975;-64
2022/04/15 09:51:22;;;;;;;;;;;10.60;99.90;;;;;;5115772;28;19969;-64
2022/04/15 09:53:51;;;;;;;;;;;10.50;99.90;;;;;;5114856;28;19924;-63
2022/04/15 09:56:18;;;;;;;;;;;10.40;99.90;;;;;;5115262;28;19932;-63
2022/04/15 09:58:46;;;;;;;;;;;10.30;99.90;;;;;;5115818;28;19924;-64
2022/04/15 10:01:12;;;;;;;;;;;10.20;99.90;;;;;;5114657;28;19976;-64
2022/04/15 10:03:38;;;;;;;;;;;10.10;99.90;;;;;;5105869;28;20011;-64
2022/04/15 10:06:05;;;;;;;;;;;10.10;99.90;;;;;;5094453;28;19924;-64
2022/04/15 10:08:31;;;;;;;;;;;10.10;99.90;;;;;;5094236;28;19928;-64
2022/04/15 10:10:57;;;;;;;;;;;10.00;99.90;;;;;;5095036;28;19931;-64
2022/04/15 10:13:27;;;;;;;;;;;10.00;99.90;;;;;;5094979;28;19936;-64
2022/04/15 10:15:54;;;;;;;;;;;10.00;99.90;;;;;;5094775;28;19924;-64
2022/04/15 10:18:21;;;;;;;;;;;9.90;99.90;;;;;;5096014;28;19968;-63
2022/04/15 10:20:47;;;;;;;;;;;9.90;99.90;;;;;;5094402;28;19920;-63
2022/04/15 10:23:14;;;;;;;;;;;9.90;99.90;;;;;;5094287;28;19924;-64
2022/04/15 10:25:44;;;;;;;;;;;9.90;99.90;;;;;;5094824;28;19924;-64
2022/04/15 10:28:10;;;;;;;;;;;9.90;99.90;;;;;;5093434;28;19947;-64
2022/04/15 10:30:36;;;;;;;;;;;9.80;99.90;;;;;;5094674;28;19944;-64
2022/04/15 10:33:02;;;;;;;;;;;9.80;99.90;;;;;;5108199;28;19927;-64
2022/04/15 10:35:29;;;;;;;;;;;9.80;99.90;;;;;;5114290;28;19924;-64
2022/04/15 10:37:56;;;;;;;;;;;9.80;99.90;;;;;;5096521;28;20036;-64
2022/04/15 10:40:26;;;;;;;;;;;9.80;99.90;;;;;;5114157;28;19931;-64
2022/04/15 10:42:52;;;;;;;;;;;9.90;99.90;;;;;;5114107;28;19947;-64
2022/04/15 10:45:26;;;;;;;;;;;10.00;99.90;;;;;;5112727;28;20373;-64
2022/04/15 10:47:58;;;;;;;;;;;10.00;99.90;;;;;;5094521;28;20378;-64
2022/04/15 10:50:26;;;;;;;;;;;10.00;99.90;;;;;;5104514;28;19920;-64
2022/04/15 10:52:51;;;;;;;;;;;10.10;99.90;;;;;;5114282;28;19938;-64
2022/04/15 10:55:17;;;;;;;;;;;10.10;99.90;;;;;;5114511;28;20370;-64
2022/04/15 10:57:46;;;;;;;;;;;10.10;99.90;;;;;;5095393;28;19923;-64
2022/04/15 11:02:56;;;;;;;;;;;10.10;99.90;;;;;;5110095;28;19971;-64
2022/04/15 11:05:33;;;;;;;;;;;10.00;99.90;;;;;;5059207;28;19986;-64
2022/04/15 11:08:06;;;;;;;;;;;10.00;99.90;;;;;;5068286;28;20366;-64
2022/04/15 11:10:50;;;;;;;;;;;9.90;99.90;;;;;;5113247;28;20378;-64
2022/04/15 11:13:22;;;;;;;;;;;9.90;99.90;;;;;;5114248;28;19981;-64
2022/04/15 11:16:03;;;;;;;;;;;9.90;99.90;;;;;;5113269;28;19924;-64
2022/04/15 11:18:48;;;;;;;;;;;9.90;99.90;;;;;;5072049;28;22319;-64
2022/04/15 11:21:15;;;;;;;;;;;9.90;99.90;;;;;;5069201;28;19925;-64
2022/04/15 11:23:42;;;;;;;;;;;9.80;99.90;;;;;;5102437;28;20290;-64
2022/04/15 11:26:08;;;;;;;;;;;9.90;99.90;;;;;;5098121;28;19950;-64
2022/04/15 11:28:34;;;;;;;;;;;9.70;99.90;;;;;;5075771;28;19930;-64
2022/04/15 11:30:59;;;;;;;;;;;9.70;99.90;;;;;;5092663;28;19928;-64
2022/04/15 11:33:25;;;;;;;;;;;9.70;99.90;;;;;;5094008;28;19928;-64
2022/04/15 11:35:51;;;;;;;;;;;9.70;99.90;;;;;;5114219;28;19978;-64
2022/04/15 11:38:16;;;;;;;;;;;9.70;99.90;;;;;;5094188;28;19923;-64
2022/04/15 11:40:43;;;;;;;;;;;9.70;99.90;;;;;;5114063;28;19924;-64
2022/04/15 11:43:09;;;;;;;;;;;9.70;99.90;;;;;;5113195;28;19945;-64
2022/04/15 11:45:36;;;;;;;;;;;9.60;99.90;;;;;;5110066;28;19924;-64
2022/04/15 11:48:14;;;;;;;;;;;9.70;99.90;;;;;;5093433;28;19924;-64
2022/04/15 11:50:39;;;;;;;;;;;9.70;99.90;;;;;;5093455;28;19920;-64
2022/04/15 11:53:06;;;;;;;;;;;9.70;99.90;;;;;;5091057;28;19923;-64
2022/04/15 11:55:33;;;;;;;;;;;9.70;99.90;;;;;;5113817;28;19971;-64
2022/04/15 11:57:59;;;;;;;;;;;9.70;99.90;;;;;;5113505;28;19931;-64
2022/04/15 12:00:25;;;;;;;;;;;9.70;99.90;;;;;;5111595;28;20018;-64
2022/04/15 12:02:59;;;;;;;;;;;9.70;99.90;;;;;;5110467;28;19935;-64
2022/04/15 12:05:26;;;;;;;;;;;9.80;99.90;;;;;;5093330;28;19924;-64
2022/04/15 12:07:52;;;;;;;;;;;9.90;99.90;;;;;;5091372;28;20360;-64
2022/04/15 12:10:18;;;;;;;;;;;9.90;99.90;;;;;;5097898;28;19924;-64
2022/04/15 12:12:44;;;;;;;;;;;9.90;99.90;;;;;;5092170;28;19924;-64
2022/04/15 12:15:12;;;;;;;;;;;9.90;99.90;;;;;;5090998;28;19977;-64
2022/04/15 12:17:37;;;;;;;;;;;9.90;99.90;;;;;;5092907;28;19924;-64
2022/04/15 12:20:03;;;;;;;;;;;9.90;99.90;;;;;;5109187;28;19965;-64
2022/04/15 12:22:29;;;;;;;;;;;9.90;99.90;;;;;;5074057;28;19928;-64
2022/04/15 12:25:12;;;;;;;;;;;10.00;99.90;;;;;;5112879;28;19931;-64
2022/04/15 12:27:38;;;;;;;;;;;10.00;99.90;;;;;;5096260;28;20415;-64
2022/04/15 12:30:04;;;;;;;;;;;10.00;99.90;;;;;;5092361;28;19936;-64
2022/04/15 12:32:34;;;;;;;;;;;10.00;99.90;;;;;;5092085;28;19943;-64
2022/04/15 12:34:59;;;;;;;;;;;10.00;99.90;;;;;;5075602;28;19924;-64
2022/04/15 12:37:34;;;;;;;;;;;10.10;99.90;;;;;;5092626;28;20294;-64
2022/04/15 12:40:03;;;;;;;;;;;10.10;99.90;;;;;;5091742;28;19975;-64
2022/04/15 12:42:30;;;;;;;;;;;10.10;99.90;;;;;;5091478;28;19954;-64
2022/04/15 12:44:56;;;;;;;;;;;10.00;99.90;;;;;;5098920;28;19928;-64
2022/04/15 12:47:26;;;;;;;;;;;10.00;99.90;;;;;;5095107;28;19947;-63
2022/04/15 12:49:51;;;;;;;;;;;9.90;99.90;;;;;;5091030;28;19932;-63
2022/04/15 12:52:18;;;;;;;;;;;9.90;99.90;;;;;;5077300;28;19924;-64
2022/04/15 12:54:55;;;;;;;;;;;10.00;99.90;;;;;;5095807;28;19924;-64
2022/04/15 12:57:20;;;;;;;;;;;9.90;99.90;;;;;;5095681;28;19932;-64
2022/04/15 12:59:47;;;;;;;;;;;10.00;99.90;;;;;;5096218;28;19928;-64
2022/04/15 13:02:13;;;;;;;;;;;9.90;99.90;;;;;;5099156;28;19959;-64
2022/04/15 13:04:39;;;;;;;;;;;9.90;99.90;;;;;;5097886;28;19967;-64
2022/04/15 13:07:04;;;;;;;;;;;9.90;99.90;;;;;;5096089;28;19981;-64
2022/04/15 13:09:30;;;;;;;;;;;9.90;99.90;;;;;;5095539;28;19924;-64
2022/04/15 13:11:56;;;;;;;;;;;9.90;99.90;;;;;;5095813;28;20015;-64
2022/04/15 13:14:22;;;;;;;;;;;9.80;99.90;;;;;;5095866;28;19963;-64
2022/04/15 13:16:49;;;;;;;;;;;9.80;99.90;;;;;;5093153;28;19924;-64
2022/04/15 13:19:16;;;;;;;;;;;9.90;99.90;;;;;;5099289;28;19926;-64
2022/04/15 13:21:41;;;;;;;;;;;9.80;99.90;;;;;;5097146;28;19936;-64
2022/04/15 13:24:07;;;;;;;;;;;9.90;99.90;;;;;;5105196;28;19924;-64
2022/04/15 13:26:33;;;;;;;;;;;9.80;99.90;;;;;;5116232;28;20286;-64
2022/04/15 13:28:58;;;;;;;;;;;9.90;99.90;;;;;;5114048;28;19924;-64
2022/04/15 13:31:24;;;;;;;;;;;9.80;99.90;;;;;;5097045;28;19963;-64
2022/04/15 13:33:50;;;;;;;;;;;9.80;99.90;;;;;;5115976;28;20065;-64
2022/04/15 13:36:15;;;;;;;;;;;9.80;99.90;;;;;;5095868;28;20463;-64
2022/04/15 13:38:41;;;;;;;;;;;9.80;99.90;;;;;;5106594;28;19920;-64
2022/04/15 13:41:07;;;;;;;;;;;9.80;99.90;;;;;;5097905;28;20302;-64
2022/04/15 13:43:33;;;;;;;;;;;9.80;99.90;;;;;;5115464;28;19935;-64
2022/04/15 13:45:59;;;;;;;;;;;9.80;99.90;;;;;;5104544;28;19920;-64
2022/04/15 13:48:24;;;;;;;;;;;9.80;99.90;;;;;;5098086;28;19943;-64
2022/04/15 13:50:51;;;;;;;;;;;9.70;99.90;;;;;;5095287;28;19920;-64
2022/04/15 13:58:45;;;;;;;;;;;9.70;99.90;;;;;;5114559;28;20018;-64
2022/04/15 14:01:23;;;;;;;;;;;9.70;99.90;;;;;;5115729;28;20010;-64
2022/04/15 14:03:50;;;;;;;;;;;9.70;99.90;;;;;;5094303;28;20019;-64
2022/04/15 14:06:15;;;;;;;;;;;9.70;99.90;;;;;;5070555;28;19924;-64
2022/04/15 14:08:41;;;;;;;;;;;9.60;99.90;;;;;;5074954;28;19931;-64
2022/04/15 14:11:07;;;;;;;;;;;9.50;99.90;;;;;;5056447;28;20287;-63
2022/04/15 14:13:35;;;;;;;;;;;9.50;99.90;;;;;;5109380;28;19924;-64
2022/04/15 14:16:01;;;;;;;;;;;9.60;99.90;;;;;;5115050;28;19992;-64
2022/04/15 14:18:26;;;;;;;;;;;9.70;99.90;;;;;;5076728;28;19974;-64
2022/04/15 14:20:52;;;;;;;;;;;9.50;99.90;;;;;;5092984;28;19931;-64
2022/04/15 14:23:18;;;;;;;;;;;9.50;99.90;;;;;;5106634;28;19930;-64
2022/04/15 14:25:43;;;;;;;;;;;9.50;99.90;;;;;;5096954;28;20419;-64
2022/04/15 14:28:09;;;;;;;;;;;9.50;99.90;;;;;;5113599;28;19933;-64
2022/04/15 14:30:35;;;;;;;;;;;9.40;99.90;;;;;;5112589;28;19938;-64
2022/04/15 14:33:00;;;;;;;;;;;9.40;99.90;;;;;;5115099;28;19973;-64
2022/04/15 14:35:26;;;;;;;;;;;9.40;99.90;;;;;;5114012;28;20438;-64